sensor_id;sensor_type;location;lat;lon;timestamp;pressure;altitude;pressure_sealevel;temperature;humidity
68145;BME280;55400;51.824;-0.196;2022-10-17T00:01:44;99944.22;;;14.03;85.76
68145;BME280;55400;51.824;-0.196;2022-10-17T00:04:10;99951.94;;;14.07;86.05
68145;BME280;55400;51.824;-0.196;2022-10-17T00:06:35;99948.41;;;14.06;86.04
68145;BME280;55400;51.824;-0.196;2022-10-17T00:09:01;99955.22;;;14.10;86.35
68145;BME280;55400;51.824;-0.196;2022-10-17T00:11:27;99957.75;;;14.12;86.50
68145;BME280;55400;51.824;-0.196;2022-10-17T00:13:54;99955.72;;;14.15;86.23
68145;BME280;55400;51.824;-0.196;2022-10-17T00:16:34;99951.28;;;14.16;86.00
68145;BME280;55400;51.824;-0.196;2022-10-17T00:19:02;99952.72;;;14.20;86.27
68145;BME280;55400;51.824;-0.196;2022-10-17T00:21:28;99956.09;;;14.22;86.60
68145;BME280;55400;51.824;-0.196;2022-10-17T00:23:54;99958.53;;;14.25;86.26
68145;BME280;55400;51.824;-0.196;2022-10-17T00:26:19;99955.78;;;14.27;86.69
68145;BME280;55400;51.824;-0.196;2022-10-17T00:28:49;99960.84;;;14.30;86.60
68145;BME280;55400;51.824;-0.196;2022-10-17T00:31:16;99963.19;;;14.34;86.90
68145;BME280;55400;51.824;-0.196;2022-10-17T00:33:42;99967.31;;;14.38;86.92
68145;BME280;55400;51.824;-0.196;2022-10-17T00:36:17;99969.13;;;14.38;86.27
68145;BME280;55400;51.824;-0.196;2022-10-17T00:38:44;99968.16;;;14.39;87.14
68145;BME280;55400;51.824;-0.196;2022-10-17T00:41:13;99965.50;;;14.39;86.58
68145;BME280;55400;51.824;-0.196;2022-10-17T00:46:23;99981.06;;;14.44;87.14
68145;BME280;55400;51.824;-0.196;2022-10-17T00:48:52;99988.09;;;14.45;86.59
68145;BME280;55400;51.824;-0.196;2022-10-17T00:51:20;99994.13;;;14.47;86.97
68145;BME280;55400;51.824;-0.196;2022-10-17T00:53:46;99991.06;;;14.40;87.54
68145;BME280;55400;51.824;-0.196;2022-10-17T00:56:12;99986.50;;;14.42;87.43
68145;BME280;55400;51.824;-0.196;2022-10-17T00:58:38;99997.63;;;14.47;86.63
68145;BME280;55400;51.824;-0.196;2022-10-17T01:01:03;99998.59;;;14.46;86.94
68145;BME280;55400;51.824;-0.196;2022-10-17T01:03:29;99994.97;;;14.47;87.32
68145;BME280;55400;51.824;-0.196;2022-10-17T01:05:55;99991.34;;;14.48;87.36
68145;BME280;55400;51.824;-0.196;2022-10-17T01:08:21;99980.75;;;14.48;87.42
68145;BME280;55400;51.824;-0.196;2022-10-17T01:11:20;99999.31;;;14.48;87.30
68145;BME280;55400;51.824;-0.196;2022-10-17T01:13:51;100005.47;;;14.49;86.91
68145;BME280;55400;51.824;-0.196;2022-10-17T01:16:35;100013.66;;;14.46;87.42
68145;BME280;55400;51.824;-0.196;2022-10-17T01:22:02;100003.78;;;14.48;87.25
68145;BME280;55400;51.824;-0.196;2022-10-17T01:27:35;100017.75;;;14.50;87.14
68145;BME280;55400;51.824;-0.196;2022-10-17T01:32:49;100016.94;;;14.49;87.27
68145;BME280;55400;51.824;-0.196;2022-10-17T01:35:19;100022.13;;;14.51;87.03
68145;BME280;55400;51.824;-0.196;2022-10-17T01:37:57;100018.75;;;14.49;87.27
68145;BME280;55400;51.824;-0.196;2022-10-17T01:40:31;100023.06;;;14.50;87.27
68145;BME280;55400;51.824;-0.196;2022-10-17T01:43:05;100025.72;;;14.50;87.13
68145;BME280;55400;51.824;-0.196;2022-10-17T01:46:10;100023.94;;;14.50;87.33
68145;BME280;55400;51.824;-0.196;2022-10-17T01:48:35;100028.28;;;14.51;86.82
68145;BME280;55400;51.824;-0.196;2022-10-17T01:51:12;100026.59;;;14.50;86.62
68145;BME280;55400;51.824;-0.196;2022-10-17T01:53:47;100047.38;;;14.44;87.23
68145;BME280;55400;51.824;-0.196;2022-10-17T01:56:15;100039.09;;;14.48;87.35
68145;BME280;55400;51.824;-0.196;2022-10-17T01:58:48;100036.34;;;14.50;86.82
68145;BME280;55400;51.824;-0.196;2022-10-17T02:01:16;100031.03;;;14.50;86.70
68145;BME280;55400;51.824;-0.196;2022-10-17T02:03:44;100022.34;;;14.48;86.94
68145;BME280;55400;51.824;-0.196;2022-10-17T02:06:10;100035.50;;;14.49;86.96
68145;BME280;55400;51.824;-0.196;2022-10-17T02:08:54;100034.66;;;14.49;87.16
68145;BME280;55400;51.824;-0.196;2022-10-17T02:11:22;100046.13;;;14.49;87.03
68145;BME280;55400;51.824;-0.196;2022-10-17T02:14:21;100057.56;;;14.50;86.86
68145;BME280;55400;51.824;-0.196;2022-10-17T02:22:21;100046.84;;;14.51;86.88
68145;BME280;55400;51.824;-0.196;2022-10-17T02:24:54;100058.44;;;14.50;86.96
68145;BME280;55400;51.824;-0.196;2022-10-17T02:32:37;100080.38;;;14.52;86.89
68145;BME280;55400;51.824;-0.196;2022-10-17T02:35:08;100074.25;;;14.52;86.90
68145;BME280;55400;51.824;-0.196;2022-10-17T02:37:34;100090.03;;;14.53;87.10
68145;BME280;55400;51.824;-0.196;2022-10-17T02:40:02;100089.16;;;14.53;87.14
68145;BME280;55400;51.824;-0.196;2022-10-17T02:42:29;100092.69;;;14.53;87.10
68145;BME280;55400;51.824;-0.196;2022-10-17T02:44:58;100100.66;;;14.53;86.87
68145;BME280;55400;51.824;-0.196;2022-10-17T02:47:36;100095.56;;;14.50;87.22
68145;BME280;55400;51.824;-0.196;2022-10-17T02:50:05;100106.06;;;14.52;87.16
68145;BME280;55400;51.824;-0.196;2022-10-17T02:52:45;100110.50;;;14.51;86.70
68145;BME280;55400;51.824;-0.196;2022-10-17T02:55:21;100117.63;;;14.51;87.04
68145;BME280;55400;51.824;-0.196;2022-10-17T02:57:54;100109.66;;;14.51;86.85
68145;BME280;55400;51.824;-0.196;2022-10-17T03:00:22;100107.97;;;14.50;87.20
68145;BME280;55400;51.824;-0.196;2022-10-17T03:02:51;100102.66;;;14.50;86.71
68145;BME280;55400;51.824;-0.196;2022-10-17T03:05:25;100111.69;;;14.47;87.09
68145;BME280;55400;51.824;-0.196;2022-10-17T03:07:52;100105.41;;;14.48;86.72
68145;BME280;55400;51.824;-0.196;2022-10-17T03:10:18;100100.13;;;14.48;86.64
68145;BME280;55400;51.824;-0.196;2022-10-17T03:12:44;100088.66;;;14.48;87.13
68145;BME280;55400;51.824;-0.196;2022-10-17T03:15:10;100071.03;;;14.47;87.01
68145;BME280;55400;51.824;-0.196;2022-10-17T03:17:36;100064.91;;;14.46;86.55
68145;BME280;55400;51.824;-0.196;2022-10-17T03:20:02;100064.78;;;14.48;86.91
68145;BME280;55400;51.824;-0.196;2022-10-17T03:22:27;100076.47;;;14.45;86.47
68145;BME280;55400;51.824;-0.196;2022-10-17T03:24:52;100072.03;;;14.46;86.86
68145;BME280;55400;51.824;-0.196;2022-10-17T03:27:18;100078.16;;;14.46;86.99
68145;BME280;55400;51.824;-0.196;2022-10-17T03:29:43;100077.31;;;14.46;87.02
68145;BME280;55400;51.824;-0.196;2022-10-17T03:32:09;100071.16;;;14.45;86.73
68145;BME280;55400;51.824;-0.196;2022-10-17T03:34:34;100078.28;;;14.45;86.97
68145;BME280;55400;51.824;-0.196;2022-10-17T03:36:59;100081.03;;;14.43;87.07
68145;BME280;55400;51.824;-0.196;2022-10-17T03:39:25;100079.22;;;14.44;86.59
68145;BME280;55400;51.824;-0.196;2022-10-17T03:41:50;100078.50;;;14.42;86.72
68145;BME280;55400;51.824;-0.196;2022-10-17T03:44:16;100089.94;;;14.42;86.51
68145;BME280;55400;51.824;-0.196;2022-10-17T03:46:41;100085.50;;;14.43;86.30
68145;BME280;55400;51.824;-0.196;2022-10-17T03:49:08;100083.06;;;14.39;86.57
68145;BME280;55400;51.824;-0.196;2022-10-17T03:51:34;100089.22;;;14.40;86.46
68145;BME280;55400;51.824;-0.196;2022-10-17T03:53:59;100096.31;;;14.39;86.43
68145;BME280;55400;51.824;-0.196;2022-10-17T03:56:25;100088.59;;;14.36;86.66
68145;BME280;55400;51.824;-0.196;2022-10-17T03:58:51;100092.19;;;14.35;86.45
68145;BME280;55400;51.824;-0.196;2022-10-17T04:01:20;100099.31;;;14.35;86.38
68145;BME280;55400;51.824;-0.196;2022-10-17T04:03:53;100105.66;;;14.32;86.29
68145;BME280;55400;51.824;-0.196;2022-10-17T04:06:19;100110.84;;;14.34;86.70
68145;BME280;55400;51.824;-0.196;2022-10-17T04:08:45;100109.16;;;14.33;86.77
68145;BME280;55400;51.824;-0.196;2022-10-17T04:11:17;100109.16;;;14.33;86.61
68145;BME280;55400;51.824;-0.196;2022-10-17T04:13:43;100106.59;;;14.31;86.58
68145;BME280;55400;51.824;-0.196;2022-10-17T04:16:12;100109.25;;;14.31;86.52
68145;BME280;55400;51.824;-0.196;2022-10-17T04:18:37;100113.44;;;14.22;86.73
68145;BME280;55400;51.824;-0.196;2022-10-17T04:21:04;100120.19;;;14.27;86.20
68145;BME280;55400;51.824;-0.196;2022-10-17T04:23:30;100113.22;;;14.26;86.34
68145;BME280;55400;51.824;-0.196;2022-10-17T04:25:57;100119.34;;;14.26;86.54
68145;BME280;55400;51.824;-0.196;2022-10-17T04:28:24;100119.34;;;14.26;86.47
68145;BME280;55400;51.824;-0.196;2022-10-17T04:31:08;100129.22;;;14.24;86.35
68145;BME280;55400;51.824;-0.196;2022-10-17T04:33:34;100122.22;;;14.23;86.19
68145;BME280;55400;51.824;-0.196;2022-10-17T04:36:08;100127.53;;;14.23;86.39
68145;BME280;55400;51.824;-0.196;2022-10-17T04:38:34;100149.69;;;14.22;86.28
68145;BME280;55400;51.824;-0.196;2022-10-17T04:41:02;100140.78;;;14.23;85.98
68145;BME280;55400;51.824;-0.196;2022-10-17T04:43:32;100140.88;;;14.21;86.46
68145;BME280;55400;51.824;-0.196;2022-10-17T04:45:59;100150.56;;;14.22;86.29
68145;BME280;55400;51.824;-0.196;2022-10-17T04:48:25;100144.38;;;14.22;86.53
68145;BME280;55400;51.824;-0.196;2022-10-17T04:50:56;100151.38;;;14.23;86.23
68145;BME280;55400;51.824;-0.196;2022-10-17T04:53:22;100152.34;;;14.22;86.47
68145;BME280;55400;51.824;-0.196;2022-10-17T04:55:48;100154.16;;;14.21;86.68
68145;BME280;55400;51.824;-0.196;2022-10-17T04:58:14;100163.91;;;14.21;86.70
68145;BME280;55400;51.824;-0.196;2022-10-17T05:00:39;100163.81;;;14.22;86.38
68145;BME280;55400;51.824;-0.196;2022-10-17T05:03:05;100164.75;;;14.21;86.49
68145;BME280;55400;51.824;-0.196;2022-10-17T05:05:30;100165.59;;;14.22;86.31
68145;BME280;55400;51.824;-0.196;2022-10-17T05:07:56;100172.72;;;14.21;86.36
68145;BME280;55400;51.824;-0.196;2022-10-17T05:10:21;100175.25;;;14.23;86.41
68145;BME280;55400;51.824;-0.196;2022-10-17T05:12:48;100173.34;;;14.25;86.63
68145;BME280;55400;51.824;-0.196;2022-10-17T05:15:13;100183.00;;;14.26;86.40
68145;BME280;55400;51.824;-0.196;2022-10-17T05:17:39;100191.06;;;14.25;86.46
68145;BME280;55400;51.824;-0.196;2022-10-17T05:20:05;100199.00;;;14.25;86.54
68145;BME280;55400;51.824;-0.196;2022-10-17T05:22:30;100199.84;;;14.25;86.40
68145;BME280;55400;51.824;-0.196;2022-10-17T05:24:56;100197.19;;;14.25;86.61
68145;BME280;55400;51.824;-0.196;2022-10-17T05:27:21;100211.53;;;14.22;86.73
68145;BME280;55400;51.824;-0.196;2022-10-17T05:29:47;100218.63;;;14.22;86.66
68145;BME280;55400;51.824;-0.196;2022-10-17T05:32:14;100212.47;;;14.21;86.55
68145;BME280;55400;51.824;-0.196;2022-10-17T05:34:39;100203.69;;;14.21;86.71
68145;BME280;55400;51.824;-0.196;2022-10-17T05:37:04;100209.19;;;14.18;86.48
68145;BME280;55400;51.824;-0.196;2022-10-17T05:39:30;100208.13;;;14.20;86.61
68145;BME280;55400;51.824;-0.196;2022-10-17T05:41:55;100209.94;;;14.20;86.49
68145;BME280;55400;51.824;-0.196;2022-10-17T05:44:21;100216.06;;;14.20;86.29
68145;BME280;55400;51.824;-0.196;2022-10-17T05:46:49;100213.53;;;14.19;86.42
68145;BME280;55400;51.824;-0.196;2022-10-17T05:49:14;100215.84;;;14.11;86.63
68145;BME280;55400;51.824;-0.196;2022-10-17T05:51:40;100225.31;;;14.15;86.34
68145;BME280;55400;51.824;-0.196;2022-10-17T05:54:05;100222.66;;;14.15;86.23
68145;BME280;55400;51.824;-0.196;2022-10-17T05:56:31;100231.47;;;14.15;86.61
68145;BME280;55400;51.824;-0.196;2022-10-17T05:58:56;100247.38;;;14.15;86.06
68145;BME280;55400;51.824;-0.196;2022-10-17T06:01:22;100251.84;;;14.15;86.27
68145;BME280;55400;51.824;-0.196;2022-10-17T06:03:48;100257.03;;;14.16;86.31
68145;BME280;55400;51.824;-0.196;2022-10-17T06:06:15;100263.28;;;14.15;86.29
68145;BME280;55400;51.824;-0.196;2022-10-17T06:08:41;100262.44;;;14.15;86.37
68145;BME280;55400;51.824;-0.196;2022-10-17T06:11:07;100258.94;;;14.14;85.94
68145;BME280;55400;51.824;-0.196;2022-10-17T06:13:32;100268.69;;;14.14;86.13
68145;BME280;55400;51.824;-0.196;2022-10-17T06:15:58;100274.97;;;14.13;86.35
68145;BME280;55400;51.824;-0.196;2022-10-17T06:18:24;100279.38;;;14.12;85.64
68145;BME280;55400;51.824;-0.196;2022-10-17T06:20:51;100282.03;;;14.12;86.04
68145;BME280;55400;51.824;-0.196;2022-10-17T06:23:16;100285.66;;;14.11;85.47
68145;BME280;55400;51.824;-0.196;2022-10-17T06:25:42;100287.56;;;14.09;85.63
68145;BME280;55400;51.824;-0.196;2022-10-17T06:28:08;100286.81;;;14.07;85.57
68145;BME280;55400;51.824;-0.196;2022-10-17T06:30:39;100292.00;;;14.09;85.86
68145;BME280;55400;51.824;-0.196;2022-10-17T06:33:05;100310.56;;;14.09;85.57
68145;BME280;55400;51.824;-0.196;2022-10-17T06:35:30;100325.63;;;14.08;85.80
68145;BME280;55400;51.824;-0.196;2022-10-17T06:37:56;100326.69;;;14.06;85.49
68145;BME280;55400;51.824;-0.196;2022-10-17T06:40:21;100326.78;;;14.04;85.55
68145;BME280;55400;51.824;-0.196;2022-10-17T06:42:47;100330.28;;;14.04;85.50
68145;BME280;55400;51.824;-0.196;2022-10-17T06:45:12;100329.53;;;14.02;85.58
68145;BME280;55400;51.824;-0.196;2022-10-17T06:47:38;100332.19;;;14.02;85.75
68145;BME280;55400;51.824;-0.196;2022-10-17T06:50:04;100342.69;;;14.04;85.30
68145;BME280;55400;51.824;-0.196;2022-10-17T06:52:30;100355.09;;;14.03;85.19
68145;BME280;55400;51.824;-0.196;2022-10-17T06:54:55;100353.41;;;14.02;85.43
68145;BME280;55400;51.824;-0.196;2022-10-17T06:57:20;100368.47;;;14.02;85.55
68145;BME280;55400;51.824;-0.196;2022-10-17T06:59:46;100371.94;;;14.02;85.60
68145;BME280;55400;51.824;-0.196;2022-10-17T07:02:12;100373.66;;;14.03;85.30
68145;BME280;55400;51.824;-0.196;2022-10-17T07:04:38;100380.75;;;14.03;85.23
68145;BME280;55400;51.824;-0.196;2022-10-17T07:07:03;100391.34;;;14.03;85.09
68145;BME280;55400;51.824;-0.196;2022-10-17T07:09:33;100389.00;;;13.98;85.05
68145;BME280;55400;51.824;-0.196;2022-10-17T07:11:58;100393.34;;;13.99;84.67
68145;BME280;55400;51.824;-0.196;2022-10-17T07:14:25;100401.22;;;14.01;84.82
68145;BME280;55400;51.824;-0.196;2022-10-17T07:16:57;100412.66;;;14.01;85.08
68145;BME280;55400;51.824;-0.196;2022-10-17T07:19:23;100421.56;;;14.00;84.52
68145;BME280;55400;51.824;-0.196;2022-10-17T07:21:48;100419.88;;;13.99;84.41
68145;BME280;55400;51.824;-0.196;2022-10-17T07:24:14;100432.19;;;14.00;85.02
68145;BME280;55400;51.824;-0.196;2022-10-17T07:26:39;100430.38;;;14.01;84.42
68145;BME280;55400;51.824;-0.196;2022-10-17T07:29:05;100426.88;;;14.00;84.48
68145;BME280;55400;51.824;-0.196;2022-10-17T07:31:32;100439.25;;;14.00;84.41
68145;BME280;55400;51.824;-0.196;2022-10-17T07:33:58;100442.88;;;13.99;84.26
68145;BME280;55400;51.824;-0.196;2022-10-17T07:36:24;100448.19;;;13.99;84.26
68145;BME280;55400;51.824;-0.196;2022-10-17T07:38:50;100458.78;;;13.99;84.12
68145;BME280;55400;51.824;-0.196;2022-10-17T07:41:15;100471.16;;;13.98;83.66
68145;BME280;55400;51.824;-0.196;2022-10-17T07:43:41;100475.72;;;13.96;83.59
68145;BME280;55400;51.824;-0.196;2022-10-17T07:46:07;100480.19;;;13.96;84.04
68145;BME280;55400;51.824;-0.196;2022-10-17T07:48:33;100486.53;;;13.93;83.78
68145;BME280;55400;51.824;-0.196;2022-10-17T07:51:04;100502.44;;;13.93;83.93
68145;BME280;55400;51.824;-0.196;2022-10-17T07:53:30;100506.97;;;13.91;83.26
68145;BME280;55400;51.824;-0.196;2022-10-17T07:55:56;100519.28;;;13.92;83.57
68145;BME280;55400;51.824;-0.196;2022-10-17T07:58:22;100514.94;;;13.91;83.41
68145;BME280;55400;51.824;-0.196;2022-10-17T08:00:47;100531.69;;;13.92;83.45
68145;BME280;55400;51.824;-0.196;2022-10-17T08:03:13;100527.31;;;13.91;83.29
68145;BME280;55400;51.824;-0.196;2022-10-17T08:05:39;100523.63;;;13.93;83.57
68145;BME280;55400;51.824;-0.196;2022-10-17T08:08:04;100534.34;;;13.92;82.96
68145;BME280;55400;51.824;-0.196;2022-10-17T08:10:30;100533.50;;;13.91;83.20
68145;BME280;55400;51.824;-0.196;2022-10-17T08:12:57;100537.81;;;13.92;83.19
68145;BME280;55400;51.824;-0.196;2022-10-17T08:15:23;100543.91;;;13.94;83.06
68145;BME280;55400;51.824;-0.196;2022-10-17T08:17:50;100546.38;;;13.97;83.14
68145;BME280;55400;51.824;-0.196;2022-10-17T08:20:16;100550.50;;;14.01;82.98
68145;BME280;55400;51.824;-0.196;2022-10-17T08:22:42;100549.47;;;14.04;82.75
68145;BME280;55400;51.824;-0.196;2022-10-17T08:25:08;100556.50;;;14.05;82.78
68145;BME280;55400;51.824;-0.196;2022-10-17T08:27:34;100568.69;;;14.08;82.42
68145;BME280;55400;51.824;-0.196;2022-10-17T08:29:59;100569.66;;;14.07;82.76
68145;BME280;55400;51.824;-0.196;2022-10-17T08:32:29;100571.34;;;14.08;83.12
68145;BME280;55400;51.824;-0.196;2022-10-17T08:34:55;100582.81;;;14.08;82.53
68145;BME280;55400;51.824;-0.196;2022-10-17T08:37:22;100578.34;;;14.09;82.66
68145;BME280;55400;51.824;-0.196;2022-10-17T08:39:47;100577.53;;;14.08;82.65
68145;BME280;55400;51.824;-0.196;2022-10-17T08:45:47;100579.88;;;14.13;82.96
68145;BME280;55400;51.824;-0.196;2022-10-17T08:48:19;100577.31;;;14.11;83.05
68145;BME280;55400;51.824;-0.196;2022-10-17T08:50:53;100589.81;;;14.09;83.01
68145;BME280;55400;51.824;-0.196;2022-10-17T08:53:40;100595.88;;;14.11;83.01
68145;BME280;55400;51.824;-0.196;2022-10-17T08:56:19;100593.25;;;14.11;83.06
68145;BME280;55400;51.824;-0.196;2022-10-17T08:58:45;100603.84;;;14.11;82.60
68145;BME280;55400;51.824;-0.196;2022-10-17T09:07:00;100626.66;;;14.14;82.54
68145;BME280;55400;51.824;-0.196;2022-10-17T09:18:25;100651.75;;;14.22;82.35
68145;BME280;55400;51.824;-0.196;2022-10-17T09:20:55;100648.63;;;14.30;81.84
68145;BME280;55400;51.824;-0.196;2022-10-17T09:23:26;100663.22;;;14.37;81.71
68145;BME280;55400;51.824;-0.196;2022-10-17T09:25:58;100665.84;;;14.37;81.80
68145;BME280;55400;51.824;-0.196;2022-10-17T09:28:30;100671.16;;;14.37;81.85
68145;BME280;55400;51.824;-0.196;2022-10-17T09:31:05;100667.56;;;14.38;82.03
68145;BME280;55400;51.824;-0.196;2022-10-17T09:33:43;100658.00;;;14.36;81.31
68145;BME280;55400;51.824;-0.196;2022-10-17T09:36:18;100667.56;;;14.38;81.43
68145;BME280;55400;51.824;-0.196;2022-10-17T09:38:48;100678.19;;;14.38;81.76
68145;BME280;55400;51.824;-0.196;2022-10-17T09:41:39;100674.69;;;14.38;81.50
68145;BME280;55400;51.824;-0.196;2022-10-17T09:44:28;100672.78;;;14.40;81.08
68145;BME280;55400;51.824;-0.196;2022-10-17T09:49:32;100678.66;;;14.45;81.42
68145;BME280;55400;51.824;-0.196;2022-10-17T09:52:02;100681.22;;;14.47;81.11
68145;BME280;55400;51.824;-0.196;2022-10-17T09:54:38;100695.25;;;14.49;80.89
68145;BME280;55400;51.824;-0.196;2022-10-17T09:57:06;100695.16;;;14.50;80.78
68145;BME280;55400;51.824;-0.196;2022-10-17T09:59:47;100695.16;;;14.50;81.01
68145;BME280;55400;51.824;-0.196;2022-10-17T10:02:24;100691.63;;;14.50;80.29
68145;BME280;55400;51.824;-0.196;2022-10-17T10:04:54;100703.88;;;14.52;80.51
68145;BME280;55400;51.824;-0.196;2022-10-17T10:07:22;100700.19;;;14.55;80.37
68145;BME280;55400;51.824;-0.196;2022-10-17T10:09:48;100721.03;;;14.61;79.92
68145;BME280;55400;51.824;-0.196;2022-10-17T10:12:29;100725.03;;;14.68;79.73
68145;BME280;55400;51.824;-0.196;2022-10-17T10:14:55;100729.94;;;14.74;79.63
68145;BME280;55400;51.824;-0.196;2022-10-17T10:17:40;100739.34;;;14.80;79.06
68145;BME280;55400;51.824;-0.196;2022-10-17T10:23:16;100757.25;;;14.91;78.46
68145;BME280;55400;51.824;-0.196;2022-10-17T10:25:55;100755.25;;;14.94;78.05
68145;BME280;55400;51.824;-0.196;2022-10-17T10:28:27;100762.28;;;14.96;77.73
68145;BME280;55400;51.824;-0.196;2022-10-17T10:30:54;100775.47;;;14.97;77.68
68145;BME280;55400;51.824;-0.196;2022-10-17T10:33:22;100783.53;;;14.96;77.44
68145;BME280;55400;51.824;-0.196;2022-10-17T10:35:58;100776.50;;;14.94;77.06
68145;BME280;55400;51.824;-0.196;2022-10-17T10:38:26;100792.34;;;14.96;77.25
68145;BME280;55400;51.824;-0.196;2022-10-17T10:41:01;100787.78;;;14.98;76.93
68145;BME280;55400;51.824;-0.196;2022-10-17T10:43:40;100791.09;;;15.02;77.14
68145;BME280;55400;51.824;-0.196;2022-10-17T10:46:38;100794.81;;;14.99;75.32
68145;BME280;55400;51.824;-0.196;2022-10-17T10:49:06;100801.69;;;15.02;76.43
68145;BME280;55400;51.824;-0.196;2022-10-17T10:51:49;100804.25;;;15.03;75.93
68145;BME280;55400;51.824;-0.196;2022-10-17T10:54:32;100807.88;;;15.02;75.20
68145;BME280;55400;51.824;-0.196;2022-10-17T10:57:01;100817.34;;;15.06;75.66
68145;BME280;55400;51.824;-0.196;2022-10-17T10:59:34;100813.66;;;15.09;75.14
68145;BME280;55400;51.824;-0.196;2022-10-17T11:02:19;100814.50;;;15.09;74.55
68145;BME280;55400;51.824;-0.196;2022-10-17T11:04:56;100815.09;;;15.15;74.11
68145;BME280;55400;51.824;-0.196;2022-10-17T11:07:30;100812.25;;;15.18;74.38
68145;BME280;55400;51.824;-0.196;2022-10-17T11:10:16;100818.13;;;15.23;73.68
68145;BME280;55400;51.824;-0.196;2022-10-17T11:13:02;100829.47;;;15.25;72.98
68145;BME280;55400;51.824;-0.196;2022-10-17T11:15:48;100828.63;;;15.24;73.39
68145;BME280;55400;51.824;-0.196;2022-10-17T11:20:49;100835.47;;;15.28;71.81
68145;BME280;55400;51.824;-0.196;2022-10-17T11:23:23;100844.66;;;15.37;74.04
68145;BME280;55400;51.824;-0.196;2022-10-17T11:25:53;100854.16;;;15.41;73.70
68145;BME280;55400;51.824;-0.196;2022-10-17T11:28:22;100862.88;;;15.43;73.23
68145;BME280;55400;51.824;-0.196;2022-10-17T11:31:10;100870.00;;;15.43;71.43
68145;BME280;55400;51.824;-0.196;2022-10-17T11:36:09;100874.66;;;15.39;73.19
68145;BME280;55400;51.824;-0.196;2022-10-17T11:38:40;100876.34;;;15.40;72.24
68145;BME280;55400;51.824;-0.196;2022-10-17T11:41:12;100873.69;;;15.40;72.54
68145;BME280;55400;51.824;-0.196;2022-10-17T11:44:22;100888.88;;;15.38;70.08
68145;BME280;55400;51.824;-0.196;2022-10-17T11:46:57;100874.66;;;15.39;72.04
68145;BME280;55400;51.824;-0.196;2022-10-17T11:49:29;100890.47;;;15.41;71.89
68145;BME280;55400;51.824;-0.196;2022-10-17T11:54:38;100898.84;;;15.49;71.14
68145;BME280;55400;51.824;-0.196;2022-10-17T11:59:44;100889.50;;;15.56;71.06
68145;BME280;55400;51.824;-0.196;2022-10-17T12:08:16;100900.25;;;15.55;69.89
68145;BME280;55400;51.824;-0.196;2022-10-17T12:14:01;100899.69;;;15.50;70.17
68145;BME280;55400;51.824;-0.196;2022-10-17T12:21:26;100907.28;;;15.41;67.50
68145;BME280;55400;51.824;-0.196;2022-10-17T12:23:52;100900.81;;;15.45;69.55
68145;BME280;55400;51.824;-0.196;2022-10-17T12:26:26;100899.69;;;15.50;68.89
68145;BME280;55400;51.824;-0.196;2022-10-17T12:28:52;100898.66;;;15.52;68.68
68145;BME280;55400;51.824;-0.196;2022-10-17T12:52:22;100904.66;;;15.97;64.04
68145;BME280;55400;51.824;-0.196;2022-10-17T12:57:22;100909.28;;;16.08;65.23
68145;BME280;55400;51.824;-0.196;2022-10-17T12:59:48;100923.44;;;16.09;64.23
68145;BME280;55400;51.824;-0.196;2022-10-17T13:02:19;100916.50;;;16.06;64.59
68145;BME280;55400;51.824;-0.196;2022-10-17T13:04:46;100925.47;;;16.05;63.80
68145;BME280;55400;51.824;-0.196;2022-10-17T13:07:18;100928.13;;;16.05;63.38
68145;BME280;55400;51.824;-0.196;2022-10-17T13:09:45;100934.38;;;16.04;63.52
68145;BME280;55400;51.824;-0.196;2022-10-17T13:12:14;100920.13;;;16.05;62.76
68145;BME280;55400;51.824;-0.196;2022-10-17T13:14:44;100917.28;;;16.08;63.04
68145;BME280;55400;51.824;-0.196;2022-10-17T13:17:23;100926.75;;;16.12;61.88
68145;BME280;55400;51.824;-0.196;2022-10-17T13:19:48;100931.88;;;16.15;62.43
68145;BME280;55400;51.824;-0.196;2022-10-17T13:22:25;100940.63;;;16.17;61.35
68145;BME280;55400;51.824;-0.196;2022-10-17T13:25:03;100934.31;;;16.18;61.88
68145;BME280;55400;51.824;-0.196;2022-10-17T13:27:32;100941.06;;;16.24;61.86
68145;BME280;55400;51.824;-0.196;2022-10-17T13:30:01;100948.84;;;16.27;61.08
68145;BME280;55400;51.824;-0.196;2022-10-17T13:32:38;100955.66;;;16.31;60.83
68145;BME280;55400;51.824;-0.196;2022-10-17T13:35:07;100954.63;;;16.34;61.20
68145;BME280;55400;51.824;-0.196;2022-10-17T13:37:34;100958.91;;;16.36;61.12
68145;BME280;55400;51.824;-0.196;2022-10-17T13:40:00;100949.00;;;16.38;60.87
68145;BME280;55400;51.824;-0.196;2022-10-17T13:42:35;100958.50;;;16.43;60.73
68145;BME280;55400;51.824;-0.196;2022-10-17T13:45:01;100960.06;;;16.45;61.03
68145;BME280;55400;51.824;-0.196;2022-10-17T13:47:28;100958.94;;;16.49;60.69
68145;BME280;55400;51.824;-0.196;2022-10-17T13:49:55;100963.94;;;16.54;59.85
68145;BME280;55400;51.824;-0.196;2022-10-17T13:52:27;100970.69;;;16.60;59.41
68145;BME280;55400;51.824;-0.196;2022-10-17T13:54:54;100967.78;;;16.63;59.28
68145;BME280;55400;51.824;-0.196;2022-10-17T13:57:30;100970.34;;;16.64;59.12
68145;BME280;55400;51.824;-0.196;2022-10-17T14:00:01;100971.13;;;16.66;58.30
68145;BME280;55400;51.824;-0.196;2022-10-17T14:02:30;100955.06;;;16.68;58.38
68145;BME280;55400;51.824;-0.196;2022-10-17T14:05:09;100960.38;;;16.68;57.67
68145;BME280;55400;51.824;-0.196;2022-10-17T14:07:40;100970.81;;;16.71;58.10
68145;BME280;55400;51.824;-0.196;2022-10-17T14:10:24;100961.00;;;16.71;57.70
68145;BME280;55400;51.824;-0.196;2022-10-17T14:12:51;100970.50;;;16.76;58.40
68145;BME280;55400;51.824;-0.196;2022-10-17T14:15:18;100964.22;;;16.77;57.57
68145;BME280;55400;51.824;-0.196;2022-10-17T14:17:53;100979.03;;;16.81;57.31
68145;BME280;55400;51.824;-0.196;2022-10-17T14:20:20;100972.56;;;16.85;57.05
68145;BME280;55400;51.824;-0.196;2022-10-17T14:22:47;100967.16;;;16.86;57.16
68145;BME280;55400;51.824;-0.196;2022-10-17T14:25:30;100973.41;;;16.85;53.63
68145;BME280;55400;51.824;-0.196;2022-10-17T14:30:46;100984.63;;;16.90;56.04